This is the latest recevied weather packets stored in our database for station/object N4DRV. If no packets are shown the sender has not sent any weather packets the latest 10 day(s).
| Time | Temp. | Humidity | Pressure | Rain* | Wind** | Luminosity | Snow |
|---|---|---|---|---|---|---|---|
| 1777649112 | 16.67° C | 65% | 1016 hPa | 0 mm | - | - | - |
| 1777647347 | 16.67° C | 66% | 1015.8 hPa | 0 mm | - | - | - |
| 1777646724 | 16.67° C | 71% | 1016.1 hPa | 0 mm | - | - | - |
| 1777645525 | 15.56° C | 77% | 1015.6 hPa | 0 mm | - | - | - |
| 1777644923 | 15.56° C | 83% | 1015.2 hPa | 0 mm | - | - | - |
| 1777640116 | 12.22° C | 89% | 1015.2 hPa | 0 mm | - | - | - |
| 1777638914 | 11.67° C | 89% | 1015.1 hPa | 0 mm | - | - | - |
| 1777637713 | 11.67° C | 93% | 1015.3 hPa | 0 mm | - | - | - |
| 1777635911 | 11.11° C | 93% | 1014.6 hPa | 0 mm | - | - | - |
| 1777630520 | 11.67° C | 90% | 1013.8 hPa | 0 mm | - | - | - |
| 1777625734 | 12.22° C | 86% | 1013.7 hPa | 0 mm | - | - | - |
| 1777624549 | 12.78° C | 86% | 1013.7 hPa | 0 mm | - | - | - |
| 1777623326 | 12.78° C | 84% | 1013.6 hPa | 0 mm | - | - | - |
| 1777620339 | 12.78° C | 82% | 1013.9 hPa | 0 mm | - | - | - |
| 1777617316 | 12.78° C | 81% | 1014.1 hPa | 0 mm | - | - | - |
| 1777613726 | 12.78° C | 83% | 1014.1 hPa | 0 mm | - | - | - |
| 1777612546 | 12.78° C | 84% | 1014 hPa | 0 mm | - | - | - |
| 1777611319 | 12.78° C | 82% | 1014.1 hPa | 0 mm | - | - | - |
| 1777607714 | 13.33° C | 79% | 1014.4 hPa | 0 mm | - | - | - |
| 1777607112 | 13.33° C | 79% | 1014.3 hPa | 0 mm | - | - | - |
| 1777601147 | 15.56° C | 68% | 1014.3 hPa | 0 mm | - | - | - |
| 1777599922 | 15.56° C | 69% | 1014.3 hPa | 0 mm | - | - | - |
| 1777599321 | 16.11° C | 68% | 1014.2 hPa | 0 mm | - | - | - |
| 1777598723 | 16.11° C | 68% | 1014 hPa | 0 mm | - | - | - |
| 1777595115 | 16.67° C | 66% | 1013.6 hPa | 0 mm | - | - | - |
* Rain latest hour (hover to see other rain measurements)
** Current wind speed in m/s (hover to see current wind gust speed)